Time;durP1;ratioP1;P1;durP2;ratioP2;P2;SDS_P1;SDS_P2;PMS_P1;PMS_P2;Temp;Humidity;BMP_temperature;BMP_pressure;BME280_temperature;BME280_humidity;BME280_pressure;Samples;Min_cycle;Max_cycle;Signal;HPM_P1;HPM_P2
2023/06/25 00:01:43;;;;;;;7.65;6.97;;;;;;;21.48;nan;95057.31;5048973;28;20257;-66
2023/06/25 00:04:11;;;;;;;8.38;6.25;;;;;;;21.57;nan;95058.34;5046129;28;20247;-65
2023/06/25 00:06:38;;;;;;;9.23;6.72;;;;;;;21.49;nan;95052.97;5048261;28;20226;-65
2023/06/25 00:09:04;;;;;;;7.25;6.65;;;;;;;21.41;nan;95058.72;5047472;28;20300;-66
2023/06/25 00:11:31;;;;;;;7.18;6.50;;;;;;;21.44;nan;95053.31;5048296;28;20195;-66
2023/06/25 00:13:58;;;;;;;7.78;6.53;;;;;;;21.44;nan;95057.66;5048040;28;20231;-66
2023/06/25 00:16:25;;;;;;;7.93;7.00;;;;;;;21.38;nan;95061.53;5048326;28;20257;-66
2023/06/25 00:18:51;;;;;;;7.68;6.95;;;;;;;21.38;nan;95051.19;5048423;28;20229;-66
2023/06/25 00:21:19;;;;;;;9.27;7.55;;;;;;;21.52;nan;95063.91;5047454;28;20226;-66
2023/06/25 00:23:46;;;;;;;8.05;7.15;;;;;;;21.53;nan;95068.09;5047565;28;20340;-66
2023/06/25 00:26:13;;;;;;;6.50;6.00;;;;;;;21.54;nan;95067.16;5047674;28;20247;-66
2023/06/25 00:28:39;;;;;;;6.55;5.95;;;;;;;21.45;nan;95065.31;5047457;28;20227;-66
2023/06/25 00:31:06;;;;;;;7.63;6.95;;;;;;;21.35;nan;95064.34;5047943;28;20653;-65
2023/06/25 00:33:33;;;;;;;11.75;6.20;;;;;;;21.25;nan;95058.25;5047536;28;20248;-66
2023/06/25 00:36:08;;;;;;;7.05;6.25;;;;;;;21.27;nan;95056.38;5045149;28;20278;-69
2023/06/25 00:38:38;;;;;;;7.10;6.47;;;;;;;21.42;nan;95060.38;5047488;28;21764;-68
2023/06/25 00:41:08;;;;;;;7.90;6.03;;;;;;;21.50;nan;95060.63;5046510;28;20215;-69
2023/06/25 00:43:35;;;;;;;7.55;6.13;;;;;;;21.46;nan;95056.63;5047375;28;20195;-68
2023/06/25 00:46:02;;;;;;;7.15;6.43;;;;;;;21.39;nan;95052.84;5043512;28;20203;-69
2023/06/25 00:48:28;;;;;;;7.18;6.53;;;;;;;21.34;nan;95045.44;5044799;28;20300;-70
2023/06/25 00:51:00;;;;;;;6.60;6.05;;;;;;;21.52;nan;95045.81;5045838;28;20280;-69
2023/06/25 00:53:30;;;;;;;6.63;6.10;;;;;;;21.50;nan;95039.09;5047231;28;20676;-71
2023/06/25 00:55:58;;;;;;;7.63;6.03;;;;;;;21.57;nan;95046.25;5045332;28;20194;-70
2023/06/25 00:58:25;;;;;;;7.25;6.50;;;;;;;21.47;nan;95047.91;5045231;28;20699;-69
2023/06/25 01:00:55;;;;;;;7.47;6.80;;;;;;;21.46;nan;95048.84;5046702;28;20254;-71
2023/06/25 01:03:27;;;;;;;6.90;6.32;;;;;;;21.36;nan;95040.97;5047595;28;20749;-70
2023/06/25 01:06:03;;;;;;;9.80;7.18;;;;;;;21.33;nan;95042.97;5045962;28;20230;-70
2023/06/25 01:08:30;;;;;;;10.38;6.95;;;;;;;21.38;nan;95052.03;5046553;28;20684;-69
2023/06/25 01:10:58;;;;;;;8.45;6.20;;;;;;;21.52;nan;95058.75;5046009;28;20680;-70
2023/06/25 01:13:25;;;;;;;8.93;6.13;;;;;;;21.63;nan;95058.72;5047504;28;20229;-70
2023/06/25 01:15:52;;;;;;;10.38;6.80;;;;;;;21.66;nan;95076.59;5047714;28;20265;-70
2023/06/25 01:18:22;;;;;;;7.10;6.35;;;;;;;21.56;nan;95067.06;5046203;28;20257;-71
2023/06/25 01:20:52;;;;;;;7.68;7.03;;;;;;;21.51;nan;95082.94;5043525;28;20286;-70
2023/06/25 01:23:21;;;;;;;8.50;5.97;;;;;;;21.54;nan;95076.69;5045964;28;20199;-71
2023/06/25 01:25:48;;;;;;;9.70;6.15;;;;;;;21.52;nan;95078.59;5044995;28;20282;-70
2023/06/25 01:28:19;;;;;;;6.68;5.95;;;;;;;21.52;nan;95076.84;5045255;28;20677;-71
2023/06/25 01:30:47;;;;;;;7.38;6.50;;;;;;;21.53;nan;95065.53;5044974;28;20498;-71
2023/06/25 01:33:15;;;;;;;7.38;6.18;;;;;;;21.57;nan;95081.63;5045628;28;20203;-71
2023/06/25 01:35:43;;;;;;;7.85;6.22;;;;;;;21.61;nan;95078.69;5046080;28;20195;-71
2023/06/25 01:38:10;;;;;;;6.93;6.22;;;;;;;21.57;nan;95072.13;5046689;28;20257;-71
2023/06/25 01:40:39;;;;;;;11.55;6.82;;;;;;;21.46;nan;95079.06;5045514;28;20638;-70
2023/06/25 01:43:06;;;;;;;9.70;5.97;;;;;;;21.40;nan;95080.34;5046198;28;20202;-70
2023/06/25 01:45:32;;;;;;;6.97;5.65;;;;;;;21.43;nan;95081.88;5046853;28;20227;-70
2023/06/25 01:47:59;;;;;;;6.35;5.57;;;;;;;21.50;nan;95083.06;5045510;28;20231;-68
2023/06/25 01:50:26;;;;;;;8.38;5.90;;;;;;;21.49;nan;95073.66;5045878;28;20198;-71
2023/06/25 01:52:53;;;;;;;9.60;6.13;;;;;;;21.50;nan;95073.53;5046801;28;20254;-70
2023/06/25 01:55:19;;;;;;;10.68;6.28;;;;;;;21.56;nan;95075.63;5046742;28;20195;-71
2023/06/25 01:57:47;;;;;;;8.32;6.82;;;;;;;21.73;nan;95082.13;5045953;28;20242;-70
2023/06/25 02:00:15;;;;;;;8.40;6.30;;;;;;;21.83;nan;95083.03;5046048;28;20230;-69
2023/06/25 02:02:42;;;;;;;6.45;5.90;;;;;;;21.86;nan;95082.81;5046138;28;20198;-71
2023/06/25 02:05:09;;;;;;;6.63;5.57;;;;;;;21.81;nan;95084.09;5046398;28;20255;-69
2023/06/25 02:07:36;;;;;;;10.80;6.10;;;;;;;21.76;nan;95075.91;5045938;28;20261;-69
2023/06/25 02:10:02;;;;;;;7.57;6.63;;;;;;;21.63;nan;95082.00;5046870;28;20234;-70
2023/06/25 02:12:29;;;;;;;8.65;7.60;;;;;;;21.64;nan;95068.13;5044868;28;20593;-71
2023/06/25 02:14:57;;;;;;;9.65;6.82;;;;;;;21.67;nan;95067.88;5046787;28;20227;-69
2023/06/25 02:17:24;;;;;;;10.57;7.90;;;;;;;21.78;nan;95069.63;5044492;28;20243;-70
2023/06/25 02:19:50;;;;;;;13.82;8.60;;;;;;;21.98;nan;95070.69;5045599;28;20643;-69
2023/06/25 02:22:17;;;;;;;12.25;8.90;;;;;;;22.00;nan;95073.97;5045857;28;20315;-70
2023/06/25 02:24:44;;;;;;;12.05;9.70;;;;;;;22.05;nan;95082.22;5046249;28;20280;-70
2023/06/25 02:27:10;;;;;;;9.80;8.32;;;;;;;21.92;nan;95076.34;5045627;28;20239;-70
2023/06/25 02:29:37;;;;;;;13.15;8.48;;;;;;;21.78;nan;95084.34;5046129;28;20218;-70
2023/06/25 02:32:06;;;;;;;13.85;8.57;;;;;;;21.66;nan;95088.69;5045356;28;20296;-69
2023/06/25 02:34:33;;;;;;;9.52;8.63;;;;;;;21.51;nan;95077.78;5045890;28;20207;-70
2023/06/25 02:36:59;;;;;;;11.30;8.55;;;;;;;21.37;nan;95067.66;5044440;28;20226;-69
2023/06/25 02:39:26;;;;;;;9.10;8.13;;;;;;;21.44;nan;95061.06;5046029;28;20642;-69
2023/06/25 02:41:53;;;;;;;9.63;8.15;;;;;;;21.60;nan;95063.31;5044629;28;20214;-71
2023/06/25 02:44:19;;;;;;;11.70;9.50;;;;;;;21.59;nan;95070.22;5045518;28;20680;-71
2023/06/25 02:46:46;;;;;;;9.05;8.07;;;;;;;21.61;nan;95088.22;5045844;28;20632;-71
2023/06/25 02:49:14;;;;;;;17.02;10.18;;;;;;;21.45;nan;95098.91;5045577;28;20749;-70
2023/06/25 02:51:41;;;;;;;19.08;9.55;;;;;;;21.20;nan;95094.78;5044398;28;20654;-71
2023/06/25 02:54:07;;;;;;;10.95;9.70;;;;;;;20.87;nan;95085.13;5045648;28;20670;-70
2023/06/25 02:56:34;;;;;;;13.27;10.55;;;;;;;20.92;nan;95079.63;5042505;28;20713;-70
2023/06/25 02:59:01;;;;;;;13.73;9.93;;;;;;;20.93;nan;95076.94;5044812;28;20203;-69
2023/06/25 03:01:27;;;;;;;12.02;9.40;;;;;;;21.02;nan;95073.69;5045644;28;20196;-70
2023/06/25 03:03:54;;;;;;;17.15;9.10;;;;;;;20.99;nan;95073.09;5045675;28;20236;-70
2023/06/25 03:06:22;;;;;;;19.80;9.60;;;;;;;20.97;nan;95080.94;5045900;28;20786;-70
2023/06/25 03:08:49;;;;;;;10.38;9.45;;;;;;;21.00;nan;95082.47;5047801;28;20265;-71
2023/06/25 03:11:15;;;;;;;11.57;9.63;;;;;;;21.11;nan;95084.25;5049687;28;20284;-71
2023/06/25 03:13:42;;;;;;;14.20;10.30;;;;;;;21.22;nan;95086.91;5050334;28;20207;-70
2023/06/25 03:16:09;;;;;;;11.10;9.25;;;;;;;21.24;nan;95079.88;5049673;28;20191;-71
2023/06/25 03:18:35;;;;;;;14.38;9.80;;;;;;;21.25;nan;95089.25;5047377;28;20195;-70
2023/06/25 03:21:02;;;;;;;15.15;9.38;;;;;;;21.20;nan;95093.91;5047956;28;20235;-71
2023/06/25 03:23:30;;;;;;;10.73;9.70;;;;;;;21.08;nan;95097.41;5047904;28;20584;-70
2023/06/25 03:25:57;;;;;;;13.52;9.38;;;;;;;21.03;nan;95085.63;5048080;28;20223;-71
2023/06/25 03:28:25;;;;;;;12.35;9.57;;;;;;;20.95;nan;95077.66;5052728;28;20226;-71
2023/06/25 03:30:52;;;;;;;11.43;10.18;;;;;;;20.90;nan;95066.84;5051298;28;20199;-72
2023/06/25 03:33:18;;;;;;;12.10;10.32;;;;;;;20.87;nan;95056.72;5050590;28;20574;-71
2023/06/25 03:35:46;;;;;;;13.90;9.70;;;;;;;20.84;nan;95069.84;5052468;28;20199;-72
2023/06/25 03:38:12;;;;;;;10.90;9.82;;;;;;;20.80;nan;95078.75;5050572;28;20210;-71
2023/06/25 03:40:41;;;;;;;10.55;9.52;;;;;;;20.81;nan;95075.25;5051275;28;20207;-71
2023/06/25 03:43:08;;;;;;;14.20;10.27;;;;;;;20.73;nan;95074.19;5049593;28;20211;-70
2023/06/25 03:45:35;;;;;;;12.27;10.10;;;;;;;20.82;nan;95069.16;5053994;28;20250;-69
2023/06/25 03:48:01;;;;;;;15.82;9.82;;;;;;;20.92;nan;95067.53;5052192;28;20672;-71
2023/06/25 03:50:28;;;;;;;12.10;9.20;;;;;;;20.83;nan;95065.63;5059032;28;20210;-70
2023/06/25 03:52:55;;;;;;;11.02;9.95;;;;;;;20.89;nan;95052.28;5057283;28;20226;-71
2023/06/25 03:55:21;;;;;;;10.80;9.80;;;;;;;20.82;nan;95053.66;5057909;28;20257;-70
2023/06/25 03:57:50;;;;;;;13.50;10.15;;;;;;;20.76;nan;95059.28;5053151;28;20203;-71
2023/06/25 04:00:17;;;;;;;10.75;9.43;;;;;;;20.64;nan;95049.84;5052620;28;20290;-71
2023/06/25 04:02:44;;;;;;;12.68;9.50;;;;;;;20.84;nan;95051.78;5052468;28;20261;-71
2023/06/25 04:05:10;;;;;;;14.68;9.25;;;;;;;20.77;nan;95045.44;5050534;28;20231;-71
2023/06/25 04:07:37;;;;;;;10.45;9.30;;;;;;;20.64;nan;95031.78;5052917;28;20288;-71
2023/06/25 04:10:04;;;;;;;11.43;10.25;;;;;;;20.52;nan;95025.75;5052756;28;20200;-71
2023/06/25 04:12:31;;;;;;;13.65;10.10;;;;;;;20.59;nan;95013.22;5050328;28;20770;-72
2023/06/25 04:14:59;;;;;;;11.38;10.20;;;;;;;20.64;nan;95003.38;5049547;28;20742;-70
2023/06/25 04:17:26;;;;;;;13.75;9.43;;;;;;;20.77;nan;95009.28;5051640;28;20199;-70
2023/06/25 04:19:52;;;;;;;12.85;10.40;;;;;;;20.77;nan;95009.28;5046662;28;20226;-72
2023/06/25 04:22:19;;;;;;;10.48;9.48;;;;;;;20.89;nan;95007.53;5048262;28;20227;-71
2023/06/25 04:24:46;;;;;;;9.80;9.00;;;;;;;20.68;nan;95010.78;5048584;28;20257;-70
2023/06/25 04:27:13;;;;;;;17.80;11.27;;;;;;;20.64;nan;95017.09;5047595;28;20231;-71
2023/06/25 04:29:40;;;;;;;11.57;9.77;;;;;;;20.53;nan;95019.66;5048897;28;20648;-70
2023/06/25 04:32:09;;;;;;;13.23;9.80;;;;;;;20.70;nan;95015.84;5050362;28;21141;-70
2023/06/25 04:34:36;;;;;;;10.73;9.73;;;;;;;20.84;nan;95025.94;5047811;28;20238;-70
2023/06/25 04:37:03;;;;;;;13.82;10.20;;;;;;;20.80;nan;95023.69;5047423;28;20261;-71
2023/06/25 04:39:29;;;;;;;13.80;10.00;;;;;;;20.83;nan;95026.88;5053482;28;20199;-72
2023/06/25 04:41:56;;;;;;;13.48;11.38;;;;;;;20.77;nan;95029.94;5051028;28;20210;-71
2023/06/25 04:44:23;;;;;;;15.50;10.10;;;;;;;20.80;nan;95023.69;5051200;28;20644;-71
2023/06/25 04:46:49;;;;;;;14.80;11.23;;;;;;;20.64;nan;95039.50;5050788;28;20219;-70
2023/06/25 04:49:17;;;;;;;11.32;10.18;;;;;;;20.52;nan;95050.75;5049423;28;20302;-71
2023/06/25 04:51:45;;;;;;;15.98;10.15;;;;;;;20.43;nan;95051.41;5047730;28;20610;-70
2023/06/25 04:54:12;;;;;;;12.98;9.32;;;;;;;20.24;nan;95041.56;5047606;28;20199;-69
2023/06/25 04:56:39;;;;;;;13.52;10.15;;;;;;;20.15;nan;95034.47;5047729;28;20218;-70
2023/06/25 04:59:05;;;;;;;9.90;9.00;;;;;;;20.25;nan;95035.47;5046391;28;20268;-70
2023/06/25 05:01:32;;;;;;;14.48;10.45;;;;;;;20.35;nan;95029.53;5048304;28;20289;-70
2023/06/25 05:03:59;;;;;;;11.07;9.35;;;;;;;20.37;nan;95038.00;5047056;28;20207;-70
2023/06/25 05:06:27;;;;;;;10.63;9.18;;;;;;;20.34;nan;95029.63;5049760;28;20303;-70
2023/06/25 05:08:55;;;;;;;11.02;10.02;;;;;;;20.40;nan;95025.81;5055338;28;20211;-71
2023/06/25 05:11:22;;;;;;;10.68;9.55;;;;;;;20.35;nan;95024.34;5061553;28;20195;-70
2023/06/25 05:13:49;;;;;;;10.70;9.73;;;;;;;20.26;nan;95030.19;5055776;28;20272;-69
2023/06/25 05:16:15;;;;;;;10.20;9.18;;;;;;;20.36;nan;95026.00;5047517;28;20196;-70
2023/06/25 05:18:42;;;;;;;10.70;9.45;;;;;;;20.24;nan;95026.91;5045273;28;20298;-69
2023/06/25 05:21:09;;;;;;;14.35;9.25;;;;;;;20.53;nan;95021.44;5045478;28;20765;-70
2023/06/25 05:23:57;;;;;;;11.38;8.77;;;;;;;20.57;nan;95028.81;5045235;28;20226;-69
2023/06/25 05:26:23;;;;;;;11.38;9.70;;;;;;;20.73;nan;95025.94;5045443;28;20226;-70
2023/06/25 05:28:51;;;;;;;14.13;8.52;;;;;;;20.84;nan;95030.28;5045021;28;20273;-70
2023/06/25 05:31:18;;;;;;;10.82;9.00;;;;;;;20.88;nan;95024.78;5046857;28;20280;-71
2023/06/25 05:33:44;;;;;;;10.75;9.20;;;;;;;21.02;nan;95029.75;5047140;28;20207;-71
2023/06/25 05:36:12;;;;;;;10.10;8.43;;;;;;;21.22;nan;95030.03;5047360;28;20207;-71
2023/06/25 05:38:40;;;;;;;10.55;8.70;;;;;;;21.31;nan;95024.16;5046297;28;20235;-70
2023/06/25 05:41:06;;;;;;;10.35;9.07;;;;;;;21.56;nan;95029.09;5044954;28;20226;-69
2023/06/25 05:43:33;;;;;;;11.13;8.98;;;;;;;21.91;nan;95028.13;5047248;28;20206;-71
2023/06/25 05:46:00;;;;;;;9.68;8.55;;;;;;;22.22;nan;95022.19;5047265;28;20218;-70
2023/06/25 05:48:27;;;;;;;8.38;7.68;;;;;;;22.58;nan;95027.94;5046094;28;20264;-70
2023/06/25 05:50:53;;;;;;;10.20;9.20;;;;;;;22.87;nan;95029.00;5045283;28;20256;-70
2023/06/25 05:53:24;;;;;;;8.82;8.15;;;;;;;23.27;nan;95030.84;5045001;28;20210;-71
2023/06/25 05:55:52;;;;;;;8.63;7.82;;;;;;;23.84;nan;95038.06;5046879;28;20203;-69
2023/06/25 05:58:18;;;;;;;8.60;7.45;;;;;;;24.40;nan;95034.94;5044723;28;20230;-72
2023/06/25 06:00:45;;;;;;;10.35;8.32;;;;;;;24.58;nan;95045.47;5045926;28;20853;-70
2023/06/25 06:03:12;;;;;;;8.90;8.00;;;;;;;24.42;nan;95041.63;5045272;28;20245;-70
2023/06/25 06:05:38;;;;;;;9.63;8.82;;;;;;;24.16;nan;95044.84;5044286;28;20642;-69
2023/06/25 06:08:05;;;;;;;7.68;7.10;;;;;;;23.96;nan;95050.00;5046797;28;20203;-70
2023/06/25 06:10:32;;;;;;;8.23;7.53;;;;;;;23.78;nan;95051.56;5044365;28;20203;-69
2023/06/25 06:13:00;;;;;;;9.60;8.70;;;;;;;23.91;nan;95046.16;5045944;28;20230;-69
2023/06/25 06:15:26;;;;;;;8.40;7.68;;;;;;;24.18;nan;95053.31;5045128;28;20257;-70
2023/06/25 06:17:53;;;;;;;8.00;7.30;;;;;;;24.31;nan;95048.72;5047042;28;20681;-69
2023/06/25 06:20:20;;;;;;;9.55;8.75;;;;;;;24.47;nan;95059.41;5044790;28;20628;-70
2023/06/25 06:22:46;;;;;;;8.32;7.53;;;;;;;24.55;nan;95056.13;5046631;28;20226;-70
2023/06/25 06:25:13;;;;;;;8.77;8.05;;;;;;;24.84;nan;95062.13;5045063;28;20762;-70
2023/06/25 06:27:40;;;;;;;8.27;7.47;;;;;;;25.15;nan;95060.22;5043464;28;20744;-68
2023/06/25 06:30:09;;;;;;;9.07;7.10;;;;;;;24.98;nan;95053.13;5046225;28;20211;-71
2023/06/25 06:32:35;;;;;;;10.60;7.65;;;;;;;25.06;nan;95054.06;5044434;28;20257;-71
2023/06/25 06:35:02;;;;;;;9.88;7.68;;;;;;;25.47;nan;95054.66;5045669;28;20830;-69
2023/06/25 06:37:29;;;;;;;9.98;8.75;;;;;;;25.50;nan;95056.13;5047063;28;20276;-68
2023/06/25 06:39:55;;;;;;;17.90;14.40;;;;;;;25.63;nan;95051.47;5045915;28;20207;-71
2023/06/25 06:42:22;;;;;;;11.95;10.57;;;;;;;26.66;nan;95046.78;5046169;28;20253;-69
2023/06/25 06:44:49;;;;;;;11.00;9.27;;;;;;;27.63;nan;95053.72;5049607;28;20209;-68
2023/06/25 06:47:17;;;;;;;8.38;7.78;;;;;;;27.61;nan;95040.81;5050905;28;20280;-69
2023/06/25 06:49:43;;;;;;;7.75;6.55;;;;;;;26.78;nan;95036.94;5049840;28;20743;-69
2023/06/25 06:52:10;;;;;;;8.10;7.60;;;;;;;26.18;nan;95039.28;5046708;28;20227;-69
2023/06/25 06:54:37;;;;;;;10.07;9.10;;;;;;;25.97;nan;95023.09;5049484;28;20735;-70
2023/06/25 06:57:04;;;;;;;10.25;9.38;;;;;;;26.14;nan;95037.13;5047714;28;20245;-69
2023/06/25 06:59:31;;;;;;;8.80;7.90;;;;;;;26.46;nan;95021.03;5049034;28;20226;-69
2023/06/25 07:01:57;;;;;;;51.95;38.28;;;;;;;26.85;nan;95018.91;5049884;28;20203;-70
2023/06/25 07:04:25;;;;;;;9.70;8.93;;;;;;;27.37;nan;95022.38;5048551;28;20681;-73
2023/06/25 07:06:52;;;;;;;11.40;10.20;;;;;;;28.98;nan;95017.78;5049892;28;20288;-70
2023/06/25 07:09:26;;;;;;;10.70;9.50;;;;;;;32.69;nan;95018.72;5049362;28;20280;-71
2023/06/25 07:11:53;;;;;;;6.35;5.85;;;;;;;36.08;nan;95016.03;5050492;28;20291;-72
2023/06/25 07:14:20;;;;;;;7.82;7.10;;;;;;;38.74;nan;95001.00;5050436;28;20226;-70
2023/06/25 07:16:46;;;;;;;9.05;8.35;;;;;;;41.33;nan;95011.75;5048472;28;20203;-72
2023/06/25 07:19:13;;;;;;;10.93;9.82;;;;;;;40.12;nan;95011.13;5047123;28;20227;-72
2023/06/25 07:21:41;;;;;;;9.88;9.13;;;;;;;37.92;nan;95005.91;5046627;28;20245;-72
2023/06/25 07:24:08;;;;;;;6.82;6.30;;;;;;;35.90;nan;95016.69;5046977;28;20199;-72
2023/06/25 07:26:35;;;;;;;7.65;7.15;;;;;;;34.41;nan;95018.06;5046741;28;20626;-72
2023/06/25 07:29:01;;;;;;;6.63;5.80;;;;;;;33.13;nan;95015.94;5047376;28;20277;-72
2023/06/25 07:31:28;;;;;;;7.72;5.72;;;;;;;32.11;nan;95018.72;5049216;28;20292;-72
2023/06/25 07:33:55;;;;;;;6.35;5.78;;;;;;;31.39;nan;95020.38;5047678;28;20242;-70
2023/06/25 07:36:22;;;;;;;6.15;5.57;;;;;;;31.02;nan;95022.00;5049260;28;20198;-72
2023/06/25 07:38:50;;;;;;;6.57;6.07;;;;;;;30.31;nan;95027.56;5048734;28;20223;-72
2023/06/25 07:41:17;;;;;;;7.07;6.57;;;;;;;29.35;nan;95025.09;5049217;28;20288;-72
2023/06/25 07:43:43;;;;;;;5.95;5.55;;;;;;;28.60;nan;95024.47;5049462;28;20211;-69
2023/06/25 07:46:10;;;;;;;5.65;4.97;;;;;;;27.97;nan;95024.94;5048926;28;20254;-71
2023/06/25 07:48:37;;;;;;;6.10;4.85;;;;;;;27.56;nan;95029.16;5047069;28;20297;-71
2023/06/25 07:51:04;;;;;;;7.03;5.47;;;;;;;27.59;nan;95027.09;5049236;28;20315;-72
2023/06/25 07:53:30;;;;;;;4.80;4.40;;;;;;;27.44;nan;95023.41;5048842;28;20210;-71
2023/06/25 07:55:58;;;;;;;4.60;4.20;;;;;;;27.44;nan;95013.78;5047446;28;20214;-71
2023/06/25 07:58:25;;;;;;;4.85;4.07;;;;;;;27.83;nan;95015.13;5047691;28;20199;-72
2023/06/25 08:00:52;;;;;;;4.60;4.35;;;;;;;28.48;nan;95007.44;5048961;28;20203;-71
2023/06/25 08:03:18;;;;;;;4.55;4.15;;;;;;;28.83;nan;95006.38;5047295;28;20590;-72
2023/06/25 08:05:45;;;;;;;14.65;13.10;;;;;;;29.06;nan;95004.72;5045920;28;20235;-70
2023/06/25 08:08:12;;;;;;;5.63;5.15;;;;;;;29.71;nan;95008.00;5048999;28;20202;-70
2023/06/25 08:10:38;;;;;;;4.35;3.83;;;;;;;31.23;nan;95015.25;5048787;28;20226;-72
2023/06/25 08:13:06;;;;;;;4.70;4.32;;;;;;;34.78;nan;94996.44;5047658;28;20249;-72
2023/06/25 08:15:33;;;;;;;6.45;3.42;;;;;;;38.98;nan;94993.91;5048476;28;20199;-71
2023/06/25 08:18:00;;;;;;;3.38;2.92;;;;;;;42.51;nan;94991.69;5048771;28;20242;-70
2023/06/25 08:20:26;;;;;;;3.60;3.50;;;;;;;45.18;nan;94992.63;5048010;28;20215;-71
2023/06/25 08:22:53;;;;;;;3.22;2.88;;;;;;;47.56;nan;94993.34;5047867;28;20750;-69
2023/06/25 08:25:21;;;;;;;2.97;2.85;;;;;;;48.03;nan;94986.38;5048263;28;20253;-71
2023/06/25 08:27:48;;;;;;;3.15;3.05;;;;;;;47.18;nan;94984.28;5045512;28;20770;-71
2023/06/25 08:30:16;;;;;;;3.50;3.30;;;;;;;47.57;nan;94981.47;5047206;28;20239;-71
2023/06/25 08:32:42;;;;;;;2.90;2.80;;;;;;;46.39;nan;94986.13;5047963;28;20221;-71
2023/06/25 08:35:09;;;;;;;3.03;2.92;;;;;;;44.24;nan;94983.03;5048587;28;20648;-70
2023/06/25 08:37:36;;;;;;;6.68;6.28;;;;;;;42.09;nan;94975.44;5047777;28;21065;-70
2023/06/25 08:40:03;;;;;;;3.75;3.45;;;;;;;39.90;nan;94991.50;5047296;28;20207;-71
2023/06/25 08:42:30;;;;;;;3.80;3.60;;;;;;;36.81;nan;94987.34;5047817;28;20276;-70
2023/06/25 08:44:57;;;;;;;5.32;4.07;;;;;;;33.53;nan;94989.88;5047297;28;20206;-70
2023/06/25 08:47:27;;;;;;;4.35;3.95;;;;;;;32.29;nan;94984.16;5047578;28;20219;-70
2023/06/25 08:49:55;;;;;;;3.80;3.60;;;;;;;31.90;nan;94988.94;5048018;28;20297;-70
2023/06/25 08:52:23;;;;;;;3.97;3.67;;;;;;;32.25;nan;94987.34;5048064;28;20254;-70
2023/06/25 08:54:50;;;;;;;3.97;3.75;;;;;;;31.95;nan;94983.94;5047669;28;20206;-70
2023/06/25 08:57:17;;;;;;;4.20;3.88;;;;;;;31.41;nan;94982.44;5045914;28;20203;-71
2023/06/25 08:59:44;;;;;;;3.58;3.38;;;;;;;31.79;nan;94980.53;5046166;28;20233;-71
2023/06/25 09:02:11;;;;;;;3.80;3.60;;;;;;;32.26;nan;94979.25;5048349;28;20285;-70
2023/06/25 09:04:39;;;;;;;3.58;3.33;;;;;;;31.90;nan;94976.63;5045869;28;22081;-71
2023/06/25 09:07:06;;;;;;;3.55;3.35;;;;;;;31.49;nan;94986.75;5045770;28;20254;-70
2023/06/25 09:09:33;;;;;;;3.85;3.45;;;;;;;30.99;nan;94982.16;5047269;28;20256;-70
2023/06/25 09:11:59;;;;;;;4.00;3.80;;;;;;;30.58;nan;94984.31;5047962;28;20270;-70
2023/06/25 09:14:26;;;;;;;3.92;3.58;;;;;;;30.30;nan;94984.81;5046898;28;20257;-71
2023/06/25 09:16:54;;;;;;;3.92;3.72;;;;;;;30.44;nan;94978.78;5046832;28;20222;-70
2023/06/25 09:19:22;;;;;;;4.50;4.10;;;;;;;30.51;nan;94978.91;5047430;28;20222;-70
2023/06/25 09:21:50;;;;;;;7.93;7.40;;;;;;;30.17;nan;94966.22;5046370;28;20286;-70
2023/06/25 09:24:17;;;;;;;19.42;17.48;;;;;;;30.09;nan;94953.16;5045275;28;20624;-71
2023/06/25 09:26:46;;;;;;;5.78;5.28;;;;;;;30.28;nan;94960.56;5043878;28;20313;-71
2023/06/25 09:29:13;;;;;;;14.73;13.10;;;;;;;30.27;nan;94956.31;5044559;28;20261;-72
2023/06/25 09:31:41;;;;;;;9.60;8.65;;;;;;;30.33;nan;94953.00;5044762;28;20207;-70
2023/06/25 09:34:08;;;;;;;8.73;5.30;;;;;;;30.40;nan;94947.88;5043806;28;20688;-70
2023/06/25 09:36:36;;;;;;;5.68;5.15;;;;;;;30.54;nan;94946.28;5044902;28;20202;-70
2023/06/25 09:39:05;;;;;;;9.90;9.23;;;;;;;30.63;nan;94946.09;5044825;28;20586;-69
2023/06/25 09:41:33;;;;;;;4.40;3.65;;;;;;;30.71;nan;94942.56;5044527;28;20677;-70
2023/06/25 09:44:04;;;;;;;3.75;3.55;;;;;;;30.60;nan;94935.13;5046749;28;20249;-69
2023/06/25 09:46:33;;;;;;;4.45;4.05;;;;;;;31.03;nan;94929.13;5045919;28;20201;-71
2023/06/25 09:49:02;;;;;;;4.03;3.72;;;;;;;31.56;nan;94929.06;5047039;28;20203;-69
2023/06/25 09:51:34;;;;;;;4.07;3.75;;;;;;;31.79;nan;94932.41;5045115;28;20249;-70
2023/06/25 09:54:06;;;;;;;4.07;3.78;;;;;;;31.68;nan;94931.06;5046230;28;20695;-70
2023/06/25 09:56:35;;;;;;;4.15;3.78;;;;;;;31.47;nan;94920.47;5047308;28;20693;-70
2023/06/25 09:59:02;;;;;;;3.72;3.53;;;;;;;31.37;nan;94933.06;5047549;28;20194;-70
2023/06/25 10:01:29;;;;;;;3.42;3.22;;;;;;;31.40;nan;94928.28;5046524;28;20750;-69
2023/06/25 10:03:56;;;;;;;3.55;3.28;;;;;;;31.29;nan;94930.53;5046698;28;20211;-70
2023/06/25 10:06:23;;;;;;;4.20;3.90;;;;;;;31.11;nan;94923.84;5046307;28;20291;-70
2023/06/25 10:08:51;;;;;;;4.35;4.07;;;;;;;31.05;nan;94916.66;5046309;28;20207;-69
2023/06/25 10:11:19;;;;;;;4.47;4.03;;;;;;;30.97;nan;94916.72;5046864;28;20206;-70
2023/06/25 10:13:46;;;;;;;4.38;3.72;;;;;;;30.61;nan;94916.59;5046608;28;20207;-70
2023/06/25 10:16:18;;;;;;;3.67;3.47;;;;;;;29.95;nan;94909.31;5047969;28;20195;-69
2023/06/25 10:18:46;;;;;;;8.95;8.02;;;;;;;29.91;nan;94902.81;5045401;28;20195;-70
2023/06/25 10:21:19;;;;;;;8.88;8.07;;;;;;;30.10;nan;94907.63;5046960;28;20199;-68
2023/06/25 10:23:53;;;;;;;4.18;3.88;;;;;;;30.20;nan;94894.25;5046732;28;20206;-68
2023/06/25 10:26:26;;;;;;;3.38;3.17;;;;;;;29.99;nan;94895.72;5044575;28;20329;-69
2023/06/25 10:28:53;;;;;;;3.70;3.50;;;;;;;29.18;nan;94892.66;5045956;28;20758;-68
2023/06/25 10:31:20;;;;;;;3.65;3.45;;;;;;;29.18;nan;94887.44;5045188;28;20207;-69
2023/06/25 10:33:46;;;;;;;5.85;3.38;;;;;;;29.32;nan;94879.66;5044812;28;20230;-68
2023/06/25 10:36:13;;;;;;;18.83;14.23;;;;;;;29.57;nan;94882.19;5046799;28;20199;-69
2023/06/25 10:38:40;;;;;;;17.90;15.30;;;;;;;30.05;nan;94873.25;5047027;28;20264;-67
2023/06/25 10:41:07;;;;;;;7.78;7.18;;;;;;;30.04;nan;94880.28;5047203;28;20234;-69
2023/06/25 10:43:37;;;;;;;8.23;5.65;;;;;;;29.79;nan;94881.41;5048675;28;20203;-69
2023/06/25 10:46:03;;;;;;;9.00;8.13;;;;;;;29.55;nan;94882.38;5048611;28;20697;-67
2023/06/25 10:48:30;;;;;;;5.60;5.10;;;;;;;29.18;nan;94876.97;5046528;28;20269;-66
2023/06/25 10:50:57;;;;;;;29.02;21.55;;;;;;;28.98;nan;94858.19;5045222;28;20276;-67
2023/06/25 10:53:24;;;;;;;19.17;16.98;;;;;;;28.65;nan;94854.84;5045390;28;20221;-68
2023/06/25 10:55:52;;;;;;;8.27;7.38;;;;;;;28.30;nan;94856.00;5045166;28;20762;-68
2023/06/25 10:58:20;;;;;;;8.05;7.45;;;;;;;28.18;nan;94854.69;5043022;28;20196;-67
2023/06/25 11:00:54;;;;;;;9.65;8.73;;;;;;;28.11;nan;94849.31;5043777;28;20230;-69
2023/06/25 11:03:20;;;;;;;6.32;5.93;;;;;;;28.05;nan;94847.34;5044253;28;20245;-67
2023/06/25 11:05:47;;;;;;;6.82;6.18;;;;;;;27.93;nan;94848.66;5043337;28;20276;-68
2023/06/25 11:08:14;;;;;;;31.02;20.85;;;;;;;28.00;nan;94834.75;5045138;28;20664;-66
2023/06/25 11:10:42;;;;;;;14.98;12.00;;;;;;;27.98;nan;94835.91;5042654;28;20295;-65
2023/06/25 11:13:10;;;;;;;10.55;8.77;;;;;;;27.84;nan;94836.56;5045014;28;20264;-67
2023/06/25 11:15:37;;;;;;;6.47;6.00;;;;;;;27.80;nan;94824.78;5045612;28;20217;-67
2023/06/25 11:18:05;;;;;;;8.70;7.90;;;;;;;27.83;nan;94822.69;5045783;28;20249;-68
2023/06/25 11:20:32;;;;;;;6.47;5.95;;;;;;;27.90;nan;94822.84;5043510;28;20219;-69
2023/06/25 11:23:01;;;;;;;6.38;5.95;;;;;;;27.84;nan;94813.06;5043484;28;20246;-66
2023/06/25 11:25:29;;;;;;;6.30;5.55;;;;;;;27.76;nan;94819.91;5042161;28;20688;-66
2023/06/25 11:28:03;;;;;;;4.60;4.20;;;;;;;27.78;nan;94828.38;5043811;28;20289;-68
2023/06/25 11:30:30;;;;;;;8.35;7.70;;;;;;;27.83;nan;94820.06;5043799;28;20795;-65
2023/06/25 11:33:09;;;;;;;9.82;9.13;;;;;;;27.85;nan;94806.84;5047350;28;20297;-67
2023/06/25 11:35:36;;;;;;;14.43;12.88;;;;;;;27.95;nan;94810.13;5047318;28;20747;-68
2023/06/25 11:38:03;;;;;;;14.63;13.02;;;;;;;28.07;nan;94808.81;5048365;28;20222;-69
2023/06/25 11:40:31;;;;;;;11.13;10.07;;;;;;;28.14;nan;94804.56;5048474;28;20283;-69
2023/06/25 11:42:58;;;;;;;9.55;8.75;;;;;;;28.09;nan;94793.78;5045803;28;20758;-68
2023/06/25 11:45:25;;;;;;;10.90;9.90;;;;;;;28.10;nan;94798.84;5048425;28;20203;-68
2023/06/25 11:47:55;;;;;;;8.45;7.68;;;;;;;28.09;nan;94794.59;5046286;28;20235;-68